createdAt,value
2018-08-12T00:00:26.037Z,84.20
2018-08-12T00:03:00.357Z,84.10
2018-08-12T00:05:34.638Z,84.10
2018-08-12T00:08:08.938Z,83.90
2018-08-12T00:10:43.077Z,84.40
2018-08-12T00:13:17.407Z,85.60
2018-08-12T00:15:51.672Z,84.80
2018-08-12T00:18:25.971Z,86.40
2018-08-12T00:21:00.143Z,85.30
2018-08-12T00:23:34.309Z,85.80
2018-08-12T00:26:08.670Z,86.00
2018-08-12T00:28:43.014Z,86.20
2018-08-12T00:31:17.341Z,86.20
2018-08-12T00:33:51.592Z,85.90
2018-08-12T00:36:25.922Z,85.80
2018-08-12T00:39:00.302Z,84.70
2018-08-12T00:41:34.538Z,84.20
2018-08-12T00:44:09.042Z,84.50
2018-08-12T00:46:43.235Z,84.00
2018-08-12T00:49:17.566Z,84.40
2018-08-12T00:51:51.877Z,84.80
2018-08-12T00:54:26.163Z,85.10
2018-08-12T00:57:00.402Z,85.00
2018-08-12T00:59:34.758Z,84.90
2018-08-12T01:02:09.096Z,84.40
2018-08-12T01:04:43.314Z,84.00
2018-08-12T01:07:17.609Z,85.00
2018-08-12T01:09:51.830Z,85.20
2018-08-12T01:12:26.018Z,85.10
2018-08-12T01:15:00.190Z,85.30
2018-08-12T01:17:34.549Z,85.10
2018-08-12T01:20:10.217Z,84.40
2018-08-12T01:22:44.366Z,84.50
2018-08-12T01:25:18.826Z,84.80
2018-08-12T01:27:53.110Z,84.50
2018-08-12T01:30:27.281Z,84.70
2018-08-12T01:33:01.517Z,84.30
2018-08-12T01:35:35.798Z,84.00
2018-08-12T01:38:10.115Z,84.40
2018-08-12T01:40:44.401Z,84.30
2018-08-12T01:43:18.694Z,84.30
2018-08-12T01:45:52.994Z,84.30
2018-08-12T01:48:27.274Z,84.30
2018-08-12T01:51:01.451Z,84.50
2018-08-12T01:53:35.639Z,84.30
2018-08-12T01:56:09.972Z,84.20
2018-08-12T01:58:44.294Z,84.00
2018-08-12T02:01:18.654Z,84.10
2018-08-12T02:03:52.966Z,84.20
2018-08-12T02:06:27.269Z,84.00
2018-08-12T02:09:01.602Z,84.30
2018-08-12T02:11:35.814Z,84.80
2018-08-12T02:14:09.969Z,85.10
2018-08-12T02:16:44.115Z,85.20
2018-08-12T02:19:18.278Z,84.90
2018-08-12T02:21:52.710Z,84.90
2018-08-12T02:24:26.988Z,85.60
2018-08-12T02:27:01.321Z,85.30
2018-08-12T02:29:35.617Z,85.90
2018-08-12T02:32:09.874Z,85.80
2018-08-12T02:34:44.305Z,85.60
2018-08-12T02:37:18.475Z,85.90
2018-08-12T02:39:52.775Z,85.30
2018-08-12T02:42:27.071Z,85.30
2018-08-12T02:45:01.293Z,85.70
2018-08-12T02:47:35.582Z,85.00
2018-08-12T02:50:09.901Z,84.50
2018-08-12T02:52:44.278Z,84.90
2018-08-12T02:55:18.527Z,85.10
2018-08-12T02:57:52.854Z,84.90
2018-08-12T03:00:27.186Z,85.20
2018-08-12T03:03:01.476Z,85.10
2018-08-12T03:05:35.753Z,85.10
2018-08-12T03:08:10.215Z,85.20
2018-08-12T03:10:44.482Z,85.20
2018-08-12T03:13:18.865Z,84.20
2018-08-12T03:15:53.143Z,83.90
2018-08-12T03:18:27.490Z,83.80
2018-08-12T03:21:02.017Z,83.70
2018-08-12T03:23:36.317Z,83.60
2018-08-12T03:26:10.619Z,83.90
2018-08-12T03:28:44.941Z,84.00
2018-08-12T03:31:19.218Z,83.40
2018-08-12T03:33:53.550Z,84.20
2018-08-12T03:36:27.769Z,84.30
2018-08-12T03:39:02.034Z,84.90
2018-08-12T03:41:36.420Z,84.70
2018-08-12T03:44:10.782Z,85.00
2018-08-12T03:46:45.243Z,85.00
2018-08-12T03:49:19.576Z,85.20
2018-08-12T03:51:53.935Z,85.60
2018-08-12T03:54:28.203Z,85.90
2018-08-12T03:57:02.446Z,85.90
2018-08-12T03:59:36.830Z,86.20
2018-08-12T04:02:11.105Z,86.50
2018-08-12T04:04:45.443Z,86.30
2018-08-12T04:07:19.883Z,86.50
2018-08-12T04:09:53.998Z,85.90
2018-08-12T04:12:28.193Z,85.70
2018-08-12T04:15:02.539Z,85.70
2018-08-12T04:17:36.888Z,85.80
2018-08-12T04:20:11.826Z,86.10
2018-08-12T04:22:45.993Z,86.30
2018-08-12T04:25:20.281Z,86.50
2018-08-12T04:27:54.531Z,86.70
2018-08-12T04:30:28.836Z,86.80
2018-08-12T04:33:03.167Z,87.50
2018-08-12T04:35:37.460Z,87.00
2018-08-12T04:38:11.729Z,86.50
2018-08-12T04:40:45.913Z,86.10
2018-08-12T04:43:20.334Z,86.00
2018-08-12T04:45:54.630Z,85.80
2018-08-12T04:48:28.935Z,85.30
2018-08-12T04:51:03.202Z,85.50
2018-08-12T04:53:37.599Z,85.30
2018-08-12T04:56:11.925Z,83.80
2018-08-12T04:58:46.218Z,83.90
2018-08-12T05:01:20.817Z,83.80
2018-08-12T05:03:55.151Z,83.60
2018-08-12T05:06:29.442Z,82.30
2018-08-12T05:09:05.662Z,82.40
2018-08-12T05:11:40.435Z,81.70
2018-08-12T05:14:14.792Z,81.70
2018-08-12T05:16:49.119Z,81.00
2018-08-12T05:19:23.530Z,81.20
2018-08-12T05:21:57.953Z,81.20
2018-08-12T05:24:32.112Z,80.40
2018-08-12T05:27:06.394Z,79.50
2018-08-12T05:29:40.669Z,79.50
2018-08-12T05:32:14.953Z,79.70
2018-08-12T05:34:49.268Z,79.70
2018-08-12T05:37:23.551Z,79.80
2018-08-12T05:39:58.037Z,79.80
2018-08-12T05:42:32.222Z,79.00
2018-08-12T05:45:07.516Z,78.80
2018-08-12T05:47:41.947Z,79.50
2018-08-12T05:50:16.239Z,79.90
2018-08-12T05:52:50.680Z,79.00
2018-08-12T05:59:28.786Z,78.00
2018-08-12T06:02:03.162Z,79.10
2018-08-12T06:04:37.376Z,79.20
2018-08-12T06:07:11.657Z,78.40
2018-08-12T06:09:45.966Z,77.70
2018-08-12T06:12:20.274Z,77.80
2018-08-12T06:14:54.558Z,77.70
2018-08-12T06:17:28.939Z,78.20
2018-08-12T06:20:03.198Z,77.30
2018-08-12T06:22:37.338Z,78.00
2018-08-12T06:25:12.381Z,77.80
2018-08-12T06:27:46.714Z,77.60
2018-08-12T06:30:20.926Z,78.40
2018-08-12T06:32:55.251Z,77.00
2018-08-12T06:35:29.607Z,76.70
2018-08-12T06:38:03.909Z,76.00
2018-08-12T06:40:38.151Z,76.00
2018-08-12T06:43:12.494Z,76.00
2018-08-12T06:45:46.906Z,75.80
2018-08-12T06:48:21.161Z,74.30
2018-08-12T06:50:55.802Z,74.30
2018-08-12T06:53:30.001Z,74.70
2018-08-12T06:56:04.382Z,74.80
2018-08-12T06:58:38.603Z,75.00
2018-08-12T07:01:13.107Z,74.80
2018-08-12T07:03:47.255Z,73.00
2018-08-12T07:06:21.542Z,73.40
2018-08-12T07:08:55.825Z,71.90
2018-08-12T07:11:30.085Z,70.70
2018-08-12T07:14:05.706Z,69.50
2018-08-12T07:16:39.981Z,69.30
2018-08-12T07:19:14.446Z,69.20
2018-08-12T07:21:48.697Z,69.10
2018-08-12T07:24:23.122Z,68.60
2018-08-12T07:26:57.263Z,67.60
2018-08-12T07:29:31.570Z,66.60
2018-08-12T07:32:05.850Z,67.00
2018-08-12T07:34:40.222Z,67.30
2018-08-12T07:37:14.523Z,65.90
2018-08-12T07:39:48.839Z,65.80
2018-08-12T07:42:23.133Z,65.90
2018-08-12T07:44:57.505Z,64.30
2018-08-12T07:47:31.793Z,63.30
2018-08-12T07:50:06.635Z,63.60
2018-08-12T07:52:41.945Z,63.40
2018-08-12T07:55:16.253Z,62.30
2018-08-12T07:57:50.483Z,62.00
2018-08-12T08:00:24.781Z,61.00
2018-08-12T08:02:59.070Z,60.60
2018-08-12T08:05:33.362Z,60.60
2018-08-12T08:08:07.676Z,59.80
2018-08-12T08:10:42.019Z,58.70
2018-08-12T08:13:16.303Z,58.90
2018-08-12T08:15:50.657Z,58.00
2018-08-12T08:18:24.859Z,58.40
2018-08-12T08:20:59.205Z,58.90
2018-08-12T08:23:33.678Z,58.90
2018-08-12T08:26:07.975Z,58.70
2018-08-12T08:28:42.131Z,58.60
2018-08-12T08:31:16.510Z,57.80
2018-08-12T08:33:50.718Z,58.70
2018-08-12T08:36:25.006Z,58.90
2018-08-12T08:38:59.463Z,58.40
2018-08-12T08:41:33.626Z,59.50
2018-08-12T08:44:08.011Z,57.70
2018-08-12T08:46:42.162Z,56.10
2018-08-12T08:49:16.454Z,57.00
2018-08-12T08:51:50.795Z,55.50
2018-08-12T08:54:25.169Z,55.10
2018-08-12T08:56:59.518Z,55.30
2018-08-12T08:59:34.206Z,53.70
2018-08-12T09:02:08.550Z,54.50
2018-08-12T09:04:42.815Z,54.10
2018-08-12T09:07:17.187Z,54.80
2018-08-12T09:09:51.361Z,54.20
2018-08-12T09:12:25.571Z,54.30
2018-08-12T09:14:59.857Z,55.30
2018-08-12T09:17:34.362Z,54.50
2018-08-12T09:20:10.182Z,54.20
2018-08-12T09:22:44.621Z,53.10
2018-08-12T09:25:18.810Z,53.40
2018-08-12T09:27:53.097Z,52.10
2018-08-12T09:30:27.421Z,52.20
2018-08-12T09:33:01.710Z,51.50
2018-08-12T09:35:35.982Z,51.80
2018-08-12T09:38:10.290Z,51.90
2018-08-12T09:40:44.626Z,51.40
2018-08-12T09:43:18.925Z,50.00
2018-08-12T09:45:53.170Z,51.10
2018-08-12T09:48:27.511Z,50.90
2018-08-12T09:51:01.856Z,50.70
2018-08-12T09:53:41.211Z,49.20
2018-08-12T09:56:15.495Z,49.70
2018-08-12T09:58:49.857Z,48.20
2018-08-12T10:01:24.059Z,48.20
2018-08-12T10:03:58.435Z,48.50
2018-08-12T10:06:32.674Z,48.60
2018-08-12T10:09:08.473Z,47.60
2018-08-12T10:11:42.720Z,48.10
2018-08-12T10:14:16.976Z,46.80
2018-08-12T10:16:51.251Z,47.60
2018-08-12T10:19:25.568Z,48.50
2018-08-12T10:21:59.858Z,47.20
2018-08-12T10:24:34.145Z,47.70
2018-08-12T10:27:08.446Z,46.70
2018-08-12T10:29:42.768Z,47.80
2018-08-12T10:32:16.936Z,47.10
2018-08-12T10:34:51.351Z,47.20
2018-08-12T10:37:25.564Z,46.90
2018-08-12T10:39:59.870Z,45.40
2018-08-12T10:42:34.170Z,45.10
2018-08-12T10:45:09.775Z,44.10
2018-08-12T10:47:44.479Z,45.20
2018-08-12T10:50:19.935Z,44.20
2018-08-12T10:52:54.114Z,43.90
2018-08-12T10:55:28.310Z,43.00
2018-08-12T10:58:02.509Z,43.30
2018-08-12T11:00:37.917Z,42.50
2018-08-12T11:03:12.195Z,42.10
2018-08-12T11:05:46.599Z,42.90
2018-08-12T11:08:20.800Z,43.00
2018-08-12T11:10:55.274Z,42.90
2018-08-12T11:13:29.455Z,42.10
2018-08-12T11:16:03.688Z,42.60
2018-08-12T11:18:37.942Z,42.80
2018-08-12T11:21:12.299Z,43.50
2018-08-12T11:23:46.571Z,43.60
2018-08-12T11:26:20.890Z,43.10
2018-08-12T11:28:55.102Z,42.20
2018-08-12T11:31:29.483Z,42.30
2018-08-12T11:34:03.699Z,41.90
2018-08-12T11:36:38.061Z,43.10
2018-08-12T11:39:12.921Z,44.10
2018-08-12T11:41:47.142Z,40.80
2018-08-12T11:44:21.370Z,41.00
2018-08-12T11:46:55.702Z,41.40
2018-08-12T11:49:29.971Z,40.90
2018-08-12T11:52:04.294Z,40.50
2018-08-12T11:54:38.681Z,41.50
2018-08-12T11:57:13.153Z,42.30
2018-08-12T11:59:47.403Z,43.00
2018-08-12T12:02:21.750Z,42.50
2018-08-12T12:04:56.126Z,42.20
2018-08-12T12:07:30.422Z,41.80
2018-08-12T12:10:06.164Z,41.80
2018-08-12T12:12:41.493Z,41.50
2018-08-12T12:15:16.411Z,42.50
2018-08-12T12:17:50.836Z,41.00
2018-08-12T12:20:25.255Z,41.80
2018-08-12T12:22:59.707Z,42.30
2018-08-12T12:25:33.982Z,42.10
2018-08-12T12:28:08.275Z,41.20
2018-08-12T12:30:42.630Z,40.60
2018-08-12T12:33:17.128Z,40.90
2018-08-12T12:35:51.471Z,41.40
2018-08-12T12:38:25.780Z,40.80
2018-08-12T12:40:59.947Z,40.30
2018-08-12T12:43:34.266Z,41.00
2018-08-12T12:46:08.564Z,40.40
2018-08-12T12:48:42.966Z,39.70
2018-08-12T12:51:17.278Z,40.10
2018-08-12T12:53:51.469Z,40.80
2018-08-12T12:56:25.882Z,40.20
2018-08-12T12:59:00.273Z,40.00
2018-08-12T13:01:34.623Z,39.30
2018-08-12T13:04:08.837Z,41.00
2018-08-12T13:06:43.186Z,39.80
2018-08-12T13:09:17.530Z,38.90
2018-08-12T13:11:51.848Z,39.70
2018-08-12T13:14:26.028Z,39.50
2018-08-12T13:17:00.250Z,39.20
2018-08-12T13:19:34.617Z,40.80
2018-08-12T13:22:08.797Z,40.20
2018-08-12T13:24:43.088Z,38.40
2018-08-12T13:27:17.270Z,38.20
2018-08-12T13:29:51.665Z,37.80
2018-08-12T13:32:25.927Z,38.70
2018-08-12T13:35:00.119Z,39.10
2018-08-12T13:37:34.771Z,37.90
2018-08-12T13:40:11.029Z,38.70
2018-08-12T13:42:45.622Z,37.80
2018-08-12T13:45:19.848Z,37.80
2018-08-12T13:47:54.356Z,38.30
2018-08-12T13:50:28.830Z,37.30
2018-08-12T13:53:03.360Z,36.90
2018-08-12T13:55:37.636Z,36.20
2018-08-12T13:58:12.093Z,36.60
2018-08-12T14:00:46.462Z,37.00
2018-08-12T14:03:20.782Z,36.50
2018-08-12T14:05:55.207Z,37.20
2018-08-12T14:08:29.496Z,35.30
2018-08-12T14:11:03.770Z,37.00
2018-08-12T14:13:38.286Z,35.70
2018-08-12T14:16:12.418Z,35.90
2018-08-12T14:18:46.741Z,35.60
2018-08-12T14:21:21.052Z,35.40
2018-08-12T14:23:55.349Z,35.70
2018-08-12T14:26:29.690Z,35.80
2018-08-12T14:29:04.046Z,36.30
2018-08-12T14:31:38.342Z,36.50
2018-08-12T14:34:12.723Z,36.20
2018-08-12T14:36:47.063Z,36.10
2018-08-12T14:39:21.319Z,35.60
2018-08-12T14:41:55.609Z,36.10
2018-08-12T14:44:29.941Z,36.00
2018-08-12T14:47:04.338Z,35.40
2018-08-12T14:49:38.567Z,35.70
2018-08-12T14:52:12.867Z,36.20
2018-08-12T14:54:47.089Z,36.20
2018-08-12T14:57:21.491Z,35.60
2018-08-12T14:59:55.810Z,35.50
2018-08-12T15:02:30.111Z,35.80
2018-08-12T15:05:04.999Z,35.70
2018-08-12T15:07:39.290Z,36.50
2018-08-12T15:10:13.598Z,35.40
2018-08-12T15:12:47.768Z,34.60
2018-08-12T15:15:22.180Z,34.50
2018-08-12T15:17:56.413Z,34.70
2018-08-12T15:20:30.732Z,34.20
2018-08-12T15:23:05.007Z,34.30
2018-08-12T15:25:39.399Z,35.10
2018-08-12T15:28:13.669Z,34.90
2018-08-12T15:30:48.037Z,35.20
2018-08-12T15:33:22.309Z,36.10
2018-08-12T15:35:56.549Z,34.50
2018-08-12T15:38:30.864Z,34.20
2018-08-12T15:41:05.212Z,35.10
2018-08-12T15:43:39.510Z,34.60
2018-08-12T15:46:13.880Z,34.90
2018-08-12T15:48:48.013Z,35.10
2018-08-12T15:51:22.214Z,35.30
2018-08-12T15:53:56.638Z,34.80
2018-08-12T15:56:31.170Z,34.50
2018-08-12T15:59:05.617Z,35.60
2018-08-12T16:01:39.918Z,35.20
2018-08-12T16:04:14.150Z,35.90
2018-08-12T16:06:48.793Z,34.30
2018-08-12T16:09:22.967Z,34.80
2018-08-12T16:11:57.291Z,34.80
2018-08-12T16:14:31.478Z,35.50
2018-08-12T16:17:06.101Z,35.70
2018-08-12T16:19:40.598Z,35.60
2018-08-12T16:22:14.901Z,35.60
2018-08-12T16:24:49.414Z,34.30
2018-08-12T16:27:23.641Z,34.30
2018-08-12T16:29:57.923Z,35.20
2018-08-12T16:32:32.166Z,35.00
2018-08-12T16:35:07.358Z,35.50
2018-08-12T16:37:42.674Z,35.20
2018-08-12T16:40:19.397Z,34.80
2018-08-12T16:42:53.737Z,34.30
2018-08-12T16:45:27.919Z,35.30
2018-08-12T16:48:02.249Z,34.90
2018-08-12T16:50:36.549Z,34.60
2018-08-12T16:53:10.861Z,34.50
2018-08-12T16:55:45.175Z,34.80
2018-08-12T16:58:19.491Z,34.80
2018-08-12T17:00:53.664Z,35.40
2018-08-12T17:03:28.024Z,36.80
2018-08-12T17:06:02.269Z,35.50
2018-08-12T17:08:36.723Z,35.70
2018-08-12T17:11:10.978Z,36.10
2018-08-12T17:13:45.309Z,36.80
2018-08-12T17:16:19.482Z,36.10
2018-08-12T17:18:53.698Z,36.30
2018-08-12T17:21:27.989Z,36.70
2018-08-12T17:24:02.256Z,37.50
2018-08-12T17:26:36.666Z,37.10
2018-08-12T17:29:10.970Z,37.60
2018-08-12T17:31:45.247Z,37.60
2018-08-12T17:34:19.706Z,37.70
2018-08-12T17:36:53.856Z,38.10
2018-08-12T17:39:28.178Z,38.80
2018-08-12T17:42:02.433Z,40.90
2018-08-12T17:44:36.646Z,40.40
2018-08-12T17:47:11.048Z,41.80
2018-08-12T17:49:45.391Z,41.40
2018-08-12T17:52:19.755Z,41.50
2018-08-12T17:54:54.021Z,41.60
2018-08-12T17:57:28.337Z,42.00
2018-08-12T18:00:02.825Z,41.40
2018-08-12T18:02:37.089Z,42.90
2018-08-12T18:05:11.627Z,43.60
2018-08-12T18:07:45.919Z,43.90
2018-08-12T18:10:20.280Z,44.60
2018-08-12T18:12:54.524Z,45.80
2018-08-12T18:15:28.832Z,47.00
2018-08-12T18:18:03.124Z,45.50
2018-08-12T18:20:37.505Z,43.90
2018-08-12T18:23:11.793Z,45.80
2018-08-12T18:25:46.187Z,48.10
2018-08-12T18:28:20.479Z,47.60
2018-08-12T18:30:54.857Z,47.50
2018-08-12T18:33:29.115Z,49.30
2018-08-12T18:36:03.397Z,48.80
2018-08-12T18:38:37.678Z,49.20
2018-08-12T18:41:12.010Z,49.90
2018-08-12T18:43:46.182Z,50.00
2018-08-12T18:46:20.539Z,50.60
2018-08-12T18:48:54.765Z,50.80
2018-08-12T18:51:29.050Z,52.00
2018-08-12T18:54:03.641Z,51.40
2018-08-12T18:56:38.190Z,51.60
2018-08-12T18:59:12.481Z,52.60
2018-08-12T19:01:46.729Z,54.20
2018-08-12T19:04:20.938Z,54.20
2018-08-12T19:06:55.169Z,52.70
2018-08-12T19:09:29.850Z,53.60
2018-08-12T19:12:04.019Z,54.60
2018-08-12T19:14:38.289Z,54.40
2018-08-12T19:17:13.371Z,54.50
2018-08-12T19:19:47.754Z,55.20
2018-08-12T19:22:22.086Z,55.20
2018-08-12T19:24:56.380Z,55.40
2018-08-12T19:27:30.679Z,55.80
2018-08-12T19:30:07.126Z,55.90
2018-08-12T19:32:41.327Z,56.60
2018-08-12T19:35:15.578Z,56.70
2018-08-12T19:37:49.833Z,56.80
2018-08-12T19:40:24.185Z,57.10
2018-08-12T19:42:58.550Z,57.40
2018-08-12T19:45:32.787Z,58.40
2018-08-12T19:48:07.013Z,58.10
2018-08-12T19:50:41.405Z,58.70
2018-08-12T19:53:15.803Z,58.20
2018-08-12T19:55:50.057Z,58.60
2018-08-12T19:58:24.384Z,58.10
2018-08-12T20:00:58.860Z,58.00
2018-08-12T20:03:33.219Z,58.60
2018-08-12T20:06:07.503Z,58.50
2018-08-12T20:08:41.783Z,58.40
2018-08-12T20:11:16.121Z,58.40
2018-08-12T20:13:50.393Z,58.80
2018-08-12T20:16:24.687Z,58.60
2018-08-12T20:18:58.877Z,58.70
2018-08-12T20:21:33.441Z,58.70
2018-08-12T20:24:07.693Z,59.10
2018-08-12T20:26:42.007Z,59.80
2018-08-12T20:29:16.471Z,59.60
2018-08-12T20:31:50.729Z,59.40
2018-08-12T20:34:25.034Z,60.10
2018-08-12T20:36:59.213Z,60.00
2018-08-12T20:39:33.602Z,60.10
2018-08-12T20:42:07.826Z,60.40
2018-08-12T20:44:42.016Z,60.20
2018-08-12T20:47:16.313Z,59.70
2018-08-12T20:49:50.642Z,61.30
2018-08-12T20:52:24.871Z,60.80
2018-08-12T20:54:59.042Z,61.20
2018-08-12T20:57:33.226Z,61.80
2018-08-12T21:00:08.518Z,62.30
2018-08-12T21:02:42.722Z,62.10
2018-08-12T21:05:17.035Z,61.80
2018-08-12T21:07:51.486Z,61.60
2018-08-12T21:10:25.682Z,62.10
2018-08-12T21:13:00.059Z,61.70
2018-08-12T21:15:34.360Z,61.60
2018-08-12T21:18:08.588Z,60.70
2018-08-12T21:20:42.769Z,60.70
2018-08-12T21:23:17.114Z,62.40
2018-08-12T21:25:51.357Z,63.20
2018-08-12T21:28:25.669Z,64.00
2018-08-12T21:31:00.016Z,61.70
2018-08-12T21:33:34.336Z,61.60
2018-08-12T21:36:08.714Z,62.20
2018-08-12T21:38:43.177Z,64.20
2018-08-12T21:41:17.731Z,64.60
2018-08-12T21:43:51.893Z,66.00
2018-08-12T21:46:26.126Z,66.00
2018-08-12T21:49:00.358Z,65.30
2018-08-12T21:51:35.266Z,64.90
2018-08-12T21:54:09.546Z,65.00
2018-08-12T21:56:44.259Z,66.20
2018-08-12T21:59:18.474Z,66.10
2018-08-12T22:01:52.848Z,66.40
2018-08-12T22:04:27.050Z,66.00
2018-08-12T22:07:01.630Z,66.30
2018-08-12T22:09:36.041Z,67.10
2018-08-12T22:12:10.195Z,67.50
2018-08-12T22:14:44.550Z,67.80
2018-08-12T22:17:18.823Z,67.60
2018-08-12T22:19:53.109Z,68.20
2018-08-12T22:22:27.441Z,68.40
2018-08-12T22:25:01.715Z,68.90
2018-08-12T22:27:35.885Z,68.90
2018-08-12T22:30:12.234Z,68.80
2018-08-12T22:32:46.514Z,69.30
2018-08-12T22:35:20.791Z,68.60
2018-08-12T22:37:55.089Z,68.30
2018-08-12T22:40:29.375Z,69.50
2018-08-12T22:43:03.713Z,69.10
2018-08-12T22:45:38.003Z,68.60
2018-08-12T22:48:12.341Z,69.00
2018-08-12T22:50:46.589Z,69.80
2018-08-12T22:53:20.902Z,70.30
2018-08-12T22:55:55.223Z,70.40
2018-08-12T22:58:29.606Z,70.40
2018-08-12T23:01:04.872Z,70.90
2018-08-12T23:03:39.166Z,70.70
2018-08-12T23:06:13.341Z,70.30
2018-08-12T23:08:47.658Z,70.50
2018-08-12T23:11:21.813Z,70.00
2018-08-12T23:13:56.200Z,70.10
2018-08-12T23:16:42.031Z,73.20
2018-08-12T23:19:16.285Z,71.80
2018-08-12T23:21:50.555Z,71.90
2018-08-12T23:24:24.894Z,71.80
2018-08-12T23:26:59.175Z,72.20
2018-08-12T23:29:33.482Z,71.60
2018-08-12T23:32:07.782Z,70.70
2018-08-12T23:34:42.074Z,71.00
2018-08-12T23:37:16.362Z,70.60
2018-08-12T23:39:50.543Z,71.40
2018-08-12T23:42:24.817Z,71.20
2018-08-12T23:44:59.026Z,70.80
2018-08-12T23:47:33.226Z,70.00
2018-08-12T23:50:07.537Z,69.80
2018-08-12T23:52:41.850Z,69.90
2018-08-12T23:55:16.143Z,70.00
2018-08-12T23:57:50.394Z,70.10
